createdAt,value
2018-06-05T00:01:05.498Z,66.09
2018-06-05T00:03:35.504Z,66.87
2018-06-05T00:06:05.545Z,66.81
2018-06-05T00:08:35.590Z,67.55
2018-06-05T00:11:05.634Z,67.06
2018-06-05T00:13:35.656Z,66.94
2018-06-05T00:16:05.709Z,67.25
2018-06-05T00:18:35.700Z,67.59
2018-06-05T00:21:05.773Z,67.33
2018-06-05T00:23:35.808Z,66.93
2018-06-05T00:26:05.897Z,68.02
2018-06-05T00:28:35.881Z,67.77
2018-06-05T00:31:05.885Z,67.83
2018-06-05T00:33:35.882Z,67.84
2018-06-05T00:36:05.953Z,68.40
2018-06-05T00:38:35.966Z,68.68
2018-06-05T00:41:06.009Z,68.31
2018-06-05T00:43:35.941Z,68.48
2018-06-05T00:46:05.947Z,68.84
2018-06-05T00:48:35.914Z,69.01
2018-06-05T00:51:21.294Z,68.87
2018-06-05T00:53:51.330Z,69.23
2018-06-05T00:56:21.334Z,68.98
2018-06-05T00:58:51.352Z,68.80
2018-06-05T01:01:21.398Z,69.49
2018-06-05T01:03:51.379Z,69.74
2018-06-05T01:06:21.441Z,70.03
2018-06-05T01:08:51.497Z,70.19
2018-06-05T01:11:21.503Z,70.39
2018-06-05T01:13:51.506Z,70.23
2018-06-05T01:16:21.526Z,70.18
2018-06-05T01:18:51.527Z,70.21
2018-06-05T01:21:21.533Z,70.43
2018-06-05T01:23:51.536Z,70.24
2018-06-05T01:26:21.569Z,70.35
2018-06-05T01:28:51.564Z,70.39
2018-06-05T01:31:21.594Z,70.57
2018-06-05T01:33:51.579Z,70.35
2018-06-05T01:36:21.617Z,70.22
2018-06-05T01:38:51.606Z,70.45
2018-06-05T01:41:21.620Z,70.87
2018-06-05T01:43:51.620Z,70.83
2018-06-05T01:46:21.611Z,71.20
2018-06-05T01:48:51.622Z,71.22
2018-06-05T01:51:21.604Z,71.40
2018-06-05T01:53:51.658Z,71.71
2018-06-05T01:56:21.648Z,71.80
2018-06-05T01:58:51.635Z,72.49
2018-06-05T02:01:21.234Z,72.53
2018-06-05T02:03:51.240Z,72.64
2018-06-05T02:06:21.199Z,73.09
2018-06-05T02:08:51.184Z,72.72
2018-06-05T02:11:21.135Z,72.72
2018-06-05T02:13:51.143Z,72.18
2018-06-05T02:16:21.141Z,72.31
2018-06-05T02:18:51.142Z,72.92
2018-06-05T02:21:21.138Z,73.29
2018-06-05T02:23:51.160Z,73.66
2018-06-05T02:26:21.169Z,73.87
2018-06-05T02:28:51.204Z,73.69
2018-06-05T02:31:21.191Z,74.04
2018-06-05T02:33:51.325Z,74.30
2018-06-05T02:36:20.981Z,74.31
2018-06-05T02:38:50.993Z,74.42
2018-06-05T02:41:21.006Z,74.66
2018-06-05T02:43:51.939Z,74.03
2018-06-05T02:46:22.610Z,74.59
2018-06-05T02:48:52.640Z,74.82
2018-06-05T02:51:22.637Z,74.47
2018-06-05T02:53:52.762Z,74.76
2018-06-05T02:56:22.772Z,74.82
2018-06-05T02:58:52.787Z,75.09
2018-06-05T03:01:22.835Z,75.06
2018-06-05T03:03:52.827Z,75.02
2018-06-05T03:06:22.795Z,75.95
2018-06-05T03:08:52.836Z,75.89
2018-06-05T03:11:22.879Z,76.23
2018-06-05T03:13:52.914Z,75.84
2018-06-05T03:16:22.887Z,76.24
2018-06-05T03:18:52.933Z,76.30
2018-06-05T03:21:22.922Z,76.08
2018-06-05T03:23:53.006Z,76.09
2018-06-05T03:26:22.990Z,75.96
2018-06-05T03:28:53.020Z,76.29
2018-06-05T03:31:23.050Z,76.38
2018-06-05T03:33:53.070Z,76.82
2018-06-05T03:36:23.084Z,77.08
2018-06-05T03:38:53.134Z,77.24
2018-06-05T03:41:23.192Z,76.72
2018-06-05T03:43:53.226Z,76.88
2018-06-05T03:46:23.255Z,76.65
2018-06-05T03:48:53.636Z,76.65
2018-06-05T03:51:23.648Z,76.83
2018-06-05T03:53:53.725Z,76.74
2018-06-05T03:56:23.348Z,76.84
2018-06-05T03:58:53.398Z,77.23
2018-06-05T04:01:23.385Z,77.35
2018-06-05T04:03:53.442Z,77.18
2018-06-05T04:06:23.486Z,77.15
2018-06-05T04:08:53.556Z,77.76
2018-06-05T04:11:23.614Z,77.70
2018-06-05T04:13:53.617Z,77.90
2018-06-05T04:16:23.647Z,78.32
2018-06-05T04:18:53.594Z,78.22
2018-06-05T04:21:23.612Z,78.01
2018-06-05T04:23:53.581Z,78.17
2018-06-05T04:26:23.563Z,78.45
2018-06-05T04:28:53.526Z,78.19
2018-06-05T04:31:23.528Z,78.73
2018-06-05T04:33:53.502Z,78.20
2018-06-05T04:36:23.553Z,78.38
2018-06-05T04:38:53.542Z,77.79
2018-06-05T04:41:23.535Z,77.86
2018-06-05T04:43:53.517Z,78.12
2018-06-05T04:46:23.540Z,78.40
2018-06-05T04:48:53.152Z,78.28
2018-06-05T04:51:23.183Z,78.13
2018-06-05T04:53:53.184Z,78.04
2018-06-05T04:56:23.160Z,77.57
2018-06-05T04:58:53.145Z,77.27
2018-06-05T05:01:23.256Z,76.88
2018-06-05T05:03:53.303Z,76.45
2018-06-05T05:06:23.363Z,76.45
2018-06-05T05:08:53.403Z,76.02
2018-06-05T05:11:23.469Z,75.52
2018-06-05T05:13:53.488Z,74.52
2018-06-05T05:16:23.557Z,74.00
2018-06-05T05:18:53.618Z,74.23
2018-06-05T05:21:23.660Z,70.66
2018-06-05T05:23:53.672Z,71.29
2018-06-05T05:26:23.717Z,68.87
2018-06-05T05:28:53.748Z,66.91
2018-06-05T05:31:23.808Z,65.33
2018-06-05T05:33:53.395Z,64.04
2018-06-05T05:36:23.497Z,63.57
2018-06-05T05:38:53.526Z,64.85
2018-06-05T05:41:23.542Z,64.55
2018-06-05T05:43:53.509Z,63.36
2018-06-05T05:46:23.556Z,65.11
2018-06-05T05:48:53.581Z,65.59
2018-06-05T05:51:23.639Z,63.05
2018-06-05T05:53:53.706Z,61.98
2018-06-05T05:56:23.761Z,62.60
2018-06-05T05:58:53.771Z,62.17
2018-06-05T06:01:23.825Z,61.10
2018-06-05T06:03:54.070Z,60.77
2018-06-05T06:06:24.137Z,59.59
2018-06-05T06:08:54.183Z,61.14
2018-06-05T06:11:24.225Z,60.01
2018-06-05T06:13:54.907Z,59.17
2018-06-05T06:16:24.960Z,59.10
2018-06-05T06:18:54.987Z,58.77
2018-06-05T06:21:25.097Z,57.99
2018-06-05T06:23:55.197Z,58.72
2018-06-05T06:26:25.237Z,60.02
2018-06-05T06:28:55.290Z,58.97
2018-06-05T06:31:25.346Z,58.94
2018-06-05T06:33:55.386Z,59.21
2018-06-05T06:36:25.388Z,58.16
2018-06-05T06:38:55.450Z,59.53
2018-06-05T06:41:25.489Z,59.41
2018-06-05T06:43:55.524Z,57.01
2018-06-05T06:46:25.521Z,59.71
2018-06-05T06:48:55.659Z,59.92
2018-06-05T06:51:25.599Z,61.15
2018-06-05T06:53:55.672Z,57.59
2018-06-05T06:56:25.716Z,58.98
2018-06-05T06:58:55.766Z,56.75
2018-06-05T07:01:25.780Z,56.20
2018-06-05T07:03:55.811Z,56.63
2018-06-05T07:06:25.849Z,55.70
2018-06-05T07:08:55.902Z,57.43
2018-06-05T07:11:25.944Z,56.95
2018-06-05T07:13:55.944Z,55.36
2018-06-05T07:16:25.938Z,55.13
2018-06-05T07:18:55.968Z,53.69
2018-06-05T07:21:25.960Z,50.88
2018-06-05T07:23:56.005Z,53.21
2018-06-05T07:26:26.604Z,55.76
2018-06-05T07:28:56.608Z,52.82
2018-06-05T07:31:26.652Z,53.35
2018-06-05T07:33:56.734Z,56.00
2018-06-05T07:36:26.746Z,59.66
2018-06-05T07:38:56.726Z,54.22
2018-06-05T07:41:26.679Z,52.89
2018-06-05T07:43:56.675Z,53.79
2018-06-05T07:46:26.639Z,52.48
2018-06-05T07:48:56.617Z,61.15
2018-06-05T07:51:26.540Z,55.67
2018-06-05T07:53:56.559Z,53.02
2018-06-05T07:56:26.596Z,53.35
2018-06-05T07:58:56.652Z,55.00
2018-06-05T08:01:26.678Z,55.01
2018-06-05T08:03:56.723Z,54.06
2018-06-05T08:06:26.755Z,55.41
2018-06-05T08:08:56.840Z,56.48
2018-06-05T08:11:26.832Z,57.19
2018-06-05T08:13:56.843Z,59.69
2018-06-05T08:16:26.882Z,55.44
2018-06-05T08:18:56.894Z,55.85
2018-06-05T08:21:26.886Z,56.14
2018-06-05T08:23:56.909Z,58.84
2018-06-05T08:26:52.178Z,56.23
2018-06-05T08:29:22.731Z,56.73
2018-06-05T08:31:53.384Z,55.94
2018-06-05T08:34:23.454Z,53.70
2018-06-05T08:36:53.490Z,56.88
2018-06-05T08:39:23.090Z,56.17
2018-06-05T08:41:53.137Z,53.55
2018-06-05T08:44:23.105Z,56.95
2018-06-05T08:46:53.058Z,56.54
2018-06-05T08:49:23.074Z,52.62
2018-06-05T08:51:53.007Z,54.74
2018-06-05T08:54:23.007Z,55.73
2018-06-05T08:56:52.983Z,56.95
2018-06-05T08:59:23.010Z,56.52
2018-06-05T09:01:53.054Z,56.36
2018-06-05T09:04:23.059Z,53.90
2018-06-05T09:06:53.016Z,54.46
2018-06-05T09:09:23.039Z,56.33
2018-06-05T09:11:53.010Z,54.06
2018-06-05T09:14:22.987Z,53.77
2018-06-05T09:16:52.926Z,56.61
2018-06-05T09:19:22.919Z,57.45
2018-06-05T09:21:52.887Z,53.78
2018-06-05T09:24:22.858Z,55.76
2018-06-05T09:26:52.860Z,53.03
2018-06-05T09:29:22.806Z,53.59
2018-06-05T09:31:52.773Z,47.17
2018-06-05T09:34:22.757Z,46.75
2018-06-05T09:36:52.815Z,49.71
2018-06-05T09:39:22.844Z,55.93
2018-06-05T09:41:52.848Z,50.10
2018-06-05T09:44:22.844Z,52.39
2018-06-05T09:46:53.010Z,52.97
2018-06-05T09:49:22.993Z,48.15
2018-06-05T09:51:52.975Z,48.89
2018-06-05T09:54:22.987Z,54.05
2018-06-05T09:56:53.022Z,48.90
2018-06-05T09:59:23.060Z,52.15
2018-06-05T10:01:53.117Z,55.74
2018-06-05T10:04:23.158Z,49.46
2018-06-05T10:06:53.209Z,47.98
2018-06-05T10:09:23.223Z,56.34
2018-06-05T10:11:53.361Z,50.21
2018-06-05T10:14:23.412Z,49.08
2018-06-05T10:16:53.459Z,52.68
2018-06-05T10:19:23.474Z,47.80
2018-06-05T10:21:53.506Z,47.46
2018-06-05T10:24:23.581Z,46.77
2018-06-05T10:26:53.623Z,50.72
2018-06-05T10:29:23.662Z,51.12
2018-06-05T10:31:54.078Z,45.67
2018-06-05T10:34:24.077Z,46.53
2018-06-05T10:36:54.123Z,48.62
2018-06-05T10:39:24.103Z,46.42
2018-06-05T10:41:54.134Z,47.22
2018-06-05T10:44:24.084Z,46.55
2018-06-05T10:46:54.083Z,47.80
2018-06-05T10:49:24.046Z,50.22
2018-06-05T10:51:54.052Z,48.26
2018-06-05T10:54:24.120Z,47.92
2018-06-05T10:56:54.150Z,50.49
2018-06-05T10:59:24.080Z,51.59
2018-06-05T11:01:54.097Z,49.67
2018-06-05T11:04:24.019Z,51.21
2018-06-05T11:06:53.938Z,50.68
2018-06-05T11:09:23.868Z,51.45
2018-06-05T11:11:53.880Z,48.09
2018-06-05T11:14:23.819Z,49.38
2018-06-05T11:16:53.746Z,53.87
2018-06-05T11:19:23.680Z,49.59
2018-06-05T11:21:53.656Z,53.24
2018-06-05T11:24:23.912Z,46.95
2018-06-05T11:26:53.902Z,46.04
2018-06-05T11:29:23.848Z,53.76
2018-06-05T11:31:53.818Z,51.68
2018-06-05T11:34:23.787Z,57.04
2018-06-05T11:36:53.802Z,49.31
2018-06-05T11:39:23.707Z,50.44
2018-06-05T11:41:53.696Z,48.25
2018-06-05T11:44:23.664Z,55.10
2018-06-05T11:46:53.915Z,56.13
2018-06-05T11:49:23.936Z,53.62
2018-06-05T11:51:54.015Z,50.13
2018-06-05T11:54:24.022Z,46.67
2018-06-05T11:56:53.995Z,50.61
2018-06-05T11:59:24.027Z,49.93
2018-06-05T12:01:54.143Z,55.70
2018-06-05T12:04:24.109Z,51.75
2018-06-05T12:06:54.173Z,49.76
2018-06-05T12:09:24.114Z,48.30
2018-06-05T12:11:53.667Z,48.29
2018-06-05T12:14:23.735Z,50.21
2018-06-05T12:16:53.764Z,49.23
2018-06-05T12:19:23.834Z,53.32
2018-06-05T12:21:53.806Z,49.27
2018-06-05T12:24:23.768Z,51.34
2018-06-05T12:26:53.867Z,49.84
2018-06-05T12:29:23.904Z,46.79
2018-06-05T12:31:53.906Z,46.90
2018-06-05T12:34:23.937Z,54.35
2018-06-05T12:36:53.949Z,50.23
2018-06-05T12:39:23.963Z,47.81
2018-06-05T12:41:53.925Z,49.80
2018-06-05T12:44:23.923Z,51.34
2018-06-05T12:46:53.899Z,50.20
2018-06-05T12:49:23.869Z,48.41
2018-06-05T12:51:53.801Z,43.72
2018-06-05T12:54:23.809Z,45.38
2018-06-05T12:56:53.766Z,45.40
2018-06-05T12:59:23.796Z,45.48
2018-06-05T13:01:53.717Z,44.79
2018-06-05T13:04:23.706Z,43.96
2018-06-05T13:06:53.650Z,40.78
2018-06-05T13:09:23.663Z,45.93
2018-06-05T13:11:53.762Z,44.09
2018-06-05T13:14:23.753Z,41.63
2018-06-05T13:16:53.747Z,44.04
2018-06-05T13:19:23.737Z,44.27
2018-06-05T13:21:53.728Z,44.70
2018-06-05T13:24:23.766Z,45.56
2018-06-05T13:26:58.113Z,40.47
2018-06-05T13:29:28.127Z,42.52
2018-06-05T13:31:58.103Z,42.36
2018-06-05T13:34:28.276Z,40.84
2018-06-05T13:36:58.239Z,38.75
2018-06-05T13:39:28.281Z,36.99
2018-06-05T13:41:58.283Z,42.21
2018-06-05T13:44:28.254Z,39.41
2018-06-05T13:46:58.203Z,38.67
2018-06-05T13:49:28.216Z,40.17
2018-06-05T13:51:58.165Z,41.53
2018-06-05T13:54:28.180Z,38.29
2018-06-05T13:56:58.105Z,38.61
2018-06-05T13:59:28.075Z,39.11
2018-06-05T14:01:58.016Z,40.56
2018-06-05T14:04:28.001Z,41.85
2018-06-05T14:06:57.961Z,40.07
2018-06-05T14:09:27.911Z,40.69
2018-06-05T14:11:57.903Z,38.54
2018-06-05T14:14:27.871Z,41.47
2018-06-05T14:16:57.887Z,44.18
2018-06-05T14:19:28.118Z,41.27
2018-06-05T14:21:58.170Z,41.62
2018-06-05T14:24:28.180Z,42.67
2018-06-05T14:26:58.202Z,38.46
2018-06-05T14:29:28.232Z,38.21
2018-06-05T14:31:58.218Z,42.15
2018-06-05T14:34:28.209Z,42.92
2018-06-05T14:36:58.186Z,40.21
2018-06-05T14:39:28.121Z,41.61
2018-06-05T14:41:58.089Z,42.23
2018-06-05T14:44:28.054Z,41.97
2018-06-05T14:46:58.009Z,40.88
2018-06-05T14:49:28.032Z,41.29
2018-06-05T14:51:57.995Z,40.51
2018-06-05T14:54:27.998Z,39.91
2018-06-05T14:56:57.970Z,42.05
2018-06-05T14:59:27.978Z,44.39
2018-06-05T15:01:57.989Z,42.10
2018-06-05T15:04:28.077Z,38.47
2018-06-05T15:06:58.164Z,37.88
2018-06-05T15:09:28.153Z,38.91
2018-06-05T15:11:58.174Z,38.32
2018-06-05T15:14:28.171Z,38.79
2018-06-05T15:16:58.196Z,38.15
2018-06-05T15:19:28.152Z,40.97
2018-06-05T15:21:58.434Z,37.53
2018-06-05T15:24:28.381Z,39.66
2018-06-05T15:26:58.349Z,37.81
2018-06-05T15:29:28.345Z,39.38
2018-06-05T15:31:58.347Z,38.31
2018-06-05T15:34:28.288Z,39.68
2018-06-05T15:36:58.301Z,38.82
2018-06-05T15:39:28.253Z,39.68
2018-06-05T15:41:58.332Z,38.34
2018-06-05T15:44:28.286Z,37.81
2018-06-05T15:46:58.270Z,38.82
2018-06-05T15:49:28.203Z,38.33
2018-06-05T15:51:57.816Z,37.62
2018-06-05T15:54:27.772Z,41.42
2018-06-05T15:56:57.750Z,38.80
2018-06-05T15:59:27.722Z,38.21
2018-06-05T16:01:57.714Z,38.20
2018-06-05T16:04:27.697Z,39.96
2018-06-05T16:06:57.288Z,41.56
2018-06-05T16:09:27.292Z,40.57
2018-06-05T16:11:57.349Z,40.48
2018-06-05T16:14:27.356Z,41.33
2018-06-05T16:16:57.456Z,39.95
2018-06-05T16:19:27.522Z,39.79
2018-06-05T16:21:57.505Z,40.90
2018-06-05T16:24:27.506Z,39.34
2018-06-05T16:26:57.631Z,40.16
2018-06-05T16:29:27.683Z,39.42
2018-06-05T16:31:57.863Z,39.33
2018-06-05T16:34:28.462Z,39.52
2018-06-05T16:36:58.114Z,39.74
2018-06-05T16:39:28.174Z,40.68
2018-06-05T16:41:58.293Z,39.08
2018-06-05T16:44:28.313Z,39.83
2018-06-05T16:46:58.264Z,38.73
2018-06-05T16:49:28.284Z,36.92
2018-06-05T16:51:58.268Z,38.67
2018-06-05T16:54:28.301Z,40.10
2018-06-05T16:56:58.277Z,42.42
2018-06-05T16:59:28.438Z,42.35
2018-06-05T17:01:58.924Z,41.66
2018-06-05T17:04:29.097Z,40.34
2018-06-05T17:06:59.082Z,40.65
2018-06-05T17:09:29.110Z,41.43
2018-06-05T17:11:59.194Z,41.15
2018-06-05T17:14:29.280Z,39.88
2018-06-05T17:16:59.414Z,40.32
2018-06-05T17:19:29.531Z,39.87
2018-06-05T17:21:59.499Z,41.47
2018-06-05T17:24:29.557Z,42.24
2018-06-05T17:26:59.642Z,41.61
2018-06-05T17:29:29.785Z,41.50
2018-06-05T17:31:59.986Z,41.61
2018-06-05T17:34:29.670Z,42.86
2018-06-05T17:36:59.901Z,42.12
2018-06-05T17:39:29.985Z,42.45
2018-06-05T17:42:00.079Z,42.30
2018-06-05T17:44:30.099Z,42.46
2018-06-05T17:47:00.138Z,43.24
2018-06-05T17:49:30.191Z,43.56
2018-06-05T17:52:00.676Z,43.13
2018-06-05T17:54:30.866Z,44.64
2018-06-05T17:57:00.808Z,44.04
2018-06-05T17:59:30.982Z,43.99
2018-06-05T18:02:00.978Z,44.53
2018-06-05T18:04:30.958Z,44.29
2018-06-05T18:07:00.927Z,45.39
2018-06-05T18:09:31.823Z,44.36
2018-06-05T18:14:44.420Z,44.64
2018-06-05T18:17:14.385Z,45.84
2018-06-05T18:19:44.437Z,45.49
2018-06-05T18:22:14.408Z,45.98
2018-06-05T18:24:44.464Z,44.98
2018-06-05T18:27:14.471Z,46.03
2018-06-05T18:29:44.477Z,46.35
2018-06-05T18:32:14.434Z,45.46
2018-06-05T18:34:44.424Z,46.44
2018-06-05T18:37:14.501Z,46.18
2018-06-05T18:39:44.660Z,46.14
2018-06-05T18:42:14.644Z,46.99
2018-06-05T18:44:44.671Z,46.97
2018-06-05T18:47:14.674Z,47.07
2018-06-05T18:49:45.291Z,47.72
2018-06-05T18:52:15.385Z,47.70
2018-06-05T18:54:45.792Z,47.99
2018-06-05T18:57:15.880Z,48.13
2018-06-05T18:59:45.995Z,48.92
2018-06-05T19:02:16.171Z,48.60
2018-06-05T19:04:46.194Z,48.46
2018-06-05T19:07:16.126Z,48.69
2018-06-05T19:09:46.189Z,48.69
2018-06-05T19:12:16.240Z,49.60
2018-06-05T19:14:46.199Z,50.06
2018-06-05T19:17:16.425Z,49.51
2018-06-05T19:19:46.475Z,49.76
2018-06-05T19:22:16.581Z,50.68
2018-06-05T19:24:46.685Z,50.51
2018-06-05T19:27:16.927Z,50.54
2018-06-05T19:29:47.033Z,50.43
2018-06-05T19:32:16.672Z,51.44
2018-06-05T19:34:46.688Z,52.07
2018-06-05T19:37:16.906Z,52.39
2018-06-05T19:39:46.915Z,52.98
2018-06-05T19:42:16.942Z,52.65
2018-06-05T19:44:47.032Z,52.75
2018-06-05T19:47:17.149Z,53.12
2018-06-05T19:49:47.364Z,53.60
2018-06-05T19:52:17.440Z,53.28
2018-06-05T19:54:47.584Z,54.10
2018-06-05T19:57:18.169Z,54.61
2018-06-05T19:59:49.046Z,53.53
2018-06-05T20:02:19.294Z,53.46
2018-06-05T20:04:49.414Z,53.21
2018-06-05T20:07:19.490Z,53.69
2018-06-05T20:09:49.565Z,53.25
2018-06-05T20:12:19.845Z,53.92
2018-06-05T20:14:49.791Z,53.60
2018-06-05T20:17:20.098Z,54.20
2018-06-05T20:19:50.131Z,54.39
2018-06-05T20:22:20.125Z,54.64
2018-06-05T20:24:53.176Z,54.82
2018-06-05T20:27:22.793Z,54.64
2018-06-05T20:29:52.745Z,54.80
2018-06-05T20:32:22.991Z,54.54
2018-06-05T20:34:53.002Z,54.54
2018-06-05T20:37:23.354Z,55.05
2018-06-05T20:39:53.355Z,55.23
2018-06-05T20:42:23.706Z,55.74
2018-06-05T20:44:53.711Z,55.46
2018-06-05T20:47:23.811Z,55.12
2018-06-05T20:49:53.831Z,55.31
2018-06-05T20:52:24.423Z,56.00
2018-06-05T20:54:54.565Z,55.73
2018-06-05T20:57:26.203Z,55.45
2018-06-05T20:59:56.486Z,56.06
2018-06-05T21:02:26.661Z,56.68
2018-06-05T21:04:57.142Z,56.50
2018-06-05T21:07:27.365Z,56.75
2018-06-05T21:09:57.464Z,56.79
2018-06-05T21:12:27.562Z,56.38
2018-06-05T21:14:57.529Z,56.65
2018-06-05T21:17:27.691Z,56.59
2018-06-05T21:19:57.809Z,57.29
2018-06-05T21:22:28.095Z,57.48
2018-06-05T21:24:58.090Z,57.10
2018-06-05T21:27:28.327Z,57.01
2018-06-05T21:29:58.340Z,57.46
2018-06-05T21:32:28.462Z,57.92
2018-06-05T21:34:58.431Z,58.00
2018-06-05T21:37:28.654Z,58.37
2018-06-05T21:39:58.752Z,58.29
2018-06-05T21:42:29.081Z,58.38
2018-06-05T21:44:59.054Z,58.59
2018-06-05T21:47:29.422Z,58.51
2018-06-05T21:49:59.395Z,58.64
2018-06-05T21:52:29.457Z,58.40
2018-06-05T21:54:59.515Z,58.86
2018-06-05T21:57:29.626Z,58.91
2018-06-05T21:59:59.590Z,60.02
2018-06-05T22:02:29.167Z,59.67
2018-06-05T22:04:59.168Z,59.84
2018-06-05T22:07:29.187Z,60.27
2018-06-05T22:09:59.163Z,60.56
2018-06-05T22:12:28.842Z,60.39
2018-06-05T22:14:59.448Z,60.54
2018-06-05T22:17:29.531Z,60.75
2018-06-05T22:19:59.524Z,61.59
2018-06-05T22:22:29.585Z,61.50
2018-06-05T22:24:59.562Z,61.26
2018-06-05T22:27:29.617Z,61.93
2018-06-05T22:29:59.594Z,61.94
2018-06-05T22:32:29.638Z,62.50
2018-06-05T22:34:59.633Z,62.66
2018-06-05T22:37:29.640Z,62.14
2018-06-05T22:39:59.630Z,62.17
2018-06-05T22:42:29.686Z,62.62
2018-06-05T22:44:59.659Z,62.21
2018-06-05T22:47:29.626Z,61.95
2018-06-05T22:49:59.615Z,61.97
2018-06-05T22:52:29.668Z,62.33
2018-06-05T22:54:59.674Z,62.26
2018-06-05T22:57:29.767Z,62.58
2018-06-05T22:59:59.770Z,62.59
2018-06-05T23:02:30.005Z,62.82
2018-06-05T23:04:59.608Z,63.51
2018-06-05T23:07:29.670Z,63.92
2018-06-05T23:09:59.666Z,64.06
2018-06-05T23:12:29.295Z,64.70
2018-06-05T23:14:59.292Z,64.57
2018-06-05T23:17:29.374Z,65.20
2018-06-05T23:19:59.373Z,65.27
2018-06-05T23:22:29.486Z,65.41
2018-06-05T23:24:59.519Z,65.61
2018-06-05T23:27:30.207Z,65.55
2018-06-05T23:30:00.204Z,65.54
2018-06-05T23:32:30.324Z,65.46
2018-06-05T23:35:00.327Z,66.21
2018-06-05T23:37:30.403Z,66.40
2018-06-05T23:40:00.418Z,66.61
2018-06-05T23:42:30.127Z,66.71
2018-06-05T23:45:00.088Z,67.10
2018-06-05T23:47:30.146Z,66.98
2018-06-05T23:50:00.143Z,67.87
2018-06-05T23:52:30.210Z,68.16
2018-06-05T23:55:00.224Z,68.23
2018-06-05T23:57:30.270Z,68.72
2018-06-05T23:59:59.869Z,68.65
